createdAt,value
2022-11-16T00:00:30.817Z,99661.88
2022-11-16T00:03:34.792Z,99657.94
2022-11-16T00:06:39.875Z,99647.09
2022-11-16T00:09:42.781Z,99641.69
2022-11-16T00:12:45.375Z,99638.19
2022-11-16T00:15:57.903Z,99633.50
2022-11-16T00:19:03.519Z,99629.09
2022-11-16T00:22:06.503Z,99624.56
2022-11-16T00:25:09.412Z,99621.81
2022-11-16T00:28:12.708Z,99627.34
2022-11-16T00:31:15.712Z,99621.00
2022-11-16T00:34:19.188Z,99631.56
2022-11-16T00:37:21.861Z,99628.47
2022-11-16T00:40:25.022Z,99621.44
2022-11-16T00:43:28.447Z,99621.06
2022-11-16T00:46:31.534Z,99614.84
2022-11-16T00:49:34.175Z,99601.34
2022-11-16T00:52:37.172Z,99596.63
2022-11-16T00:55:41.110Z,99591.97
2022-11-16T00:58:44.891Z,99597.81
2022-11-16T01:01:47.847Z,99585.44
2022-11-16T01:04:50.747Z,99578.47
2022-11-16T01:07:53.624Z,99579.72
2022-11-16T01:10:56.509Z,99577.13
2022-11-16T01:14:01.523Z,99567.31
2022-11-16T01:17:04.826Z,99570.56
2022-11-16T01:20:12.095Z,99566.97
2022-11-16T01:23:15.037Z,99570.59
2022-11-16T01:26:19.197Z,99558.78
2022-11-16T01:29:26.868Z,99552.47
2022-11-16T01:32:30.036Z,99558.09
2022-11-16T01:35:32.924Z,99550.50
2022-11-16T01:38:36.216Z,99542.09
2022-11-16T01:41:41.425Z,99542.47
2022-11-16T01:44:43.946Z,99539.25
2022-11-16T01:47:47.649Z,99538.19
2022-11-16T01:50:54.027Z,99541.31
2022-11-16T01:53:58.784Z,99538.81
2022-11-16T01:57:04.588Z,99535.50
2022-11-16T02:00:11.170Z,99534.31
2022-11-16T02:03:20.815Z,99524.78
2022-11-16T02:06:26.890Z,99527.56
2022-11-16T02:09:54.631Z,99524.38
2022-11-16T02:13:00.315Z,99527.13
2022-11-16T02:16:27.335Z,99521.31
2022-11-16T02:19:53.301Z,99511.28
2022-11-16T02:23:35.328Z,99507.81
2022-11-16T02:26:51.303Z,99503.41
2022-11-16T02:29:58.140Z,99499.38
2022-11-16T02:33:11.642Z,99491.63
2022-11-16T02:36:22.917Z,99488.09
2022-11-16T02:39:29.739Z,99484.53
2022-11-16T02:42:48.613Z,99481.69
2022-11-16T02:45:54.390Z,99476.34
2022-11-16T02:49:04.225Z,99476.09
2022-11-16T02:52:09.866Z,99473.19
2022-11-16T02:55:14.331Z,99473.72
2022-11-16T02:58:24.243Z,99457.06
2022-11-16T03:01:34.863Z,99459.16
2022-11-16T03:04:51.730Z,99462.31
2022-11-16T03:08:24.099Z,99451.09
2022-11-16T03:11:47.107Z,99455.53
2022-11-16T03:15:00.017Z,99447.69
2022-11-16T03:18:03.631Z,99448.00
2022-11-16T03:21:15.934Z,99435.00
2022-11-16T03:24:19.025Z,99433.81
2022-11-16T03:27:26.438Z,99440.16
2022-11-16T03:30:36.944Z,99428.63
2022-11-16T03:33:46.223Z,99424.38
2022-11-16T03:36:53.623Z,99414.81
2022-11-16T03:39:58.060Z,99416.72
2022-11-16T03:43:03.624Z,99411.25
2022-11-16T03:46:06.708Z,99415.22
2022-11-16T03:49:09.520Z,99411.63
2022-11-16T03:52:13.959Z,99413.22
2022-11-16T03:55:18.975Z,99408.91
2022-11-16T03:58:22.736Z,99399.34
2022-11-16T04:01:25.399Z,99395.78
2022-11-16T04:04:47.262Z,99396.47
2022-11-16T04:08:28.977Z,99395.22
2022-11-16T04:11:50.540Z,99390.19
2022-11-16T04:15:12.002Z,99387.72
2022-11-16T04:18:34.531Z,99377.84
2022-11-16T04:22:00.632Z,99374.66
2022-11-16T04:25:14.394Z,99378.25
2022-11-16T04:28:22.565Z,99369.25
2022-11-16T04:31:44.160Z,99379.12
2022-11-16T04:35:05.533Z,99372.09
2022-11-16T04:38:11.253Z,99367.38
2022-11-16T04:41:33.968Z,99368.22
2022-11-16T04:44:55.737Z,99363.75
2022-11-16T04:47:58.924Z,99370.50
2022-11-16T04:51:02.417Z,99364.28
2022-11-16T04:54:05.497Z,99359.97
2022-11-16T04:57:08.481Z,99359.38
2022-11-16T05:00:11.807Z,99348.16
2022-11-16T05:03:15.051Z,99349.00
2022-11-16T05:06:18.102Z,99351.81
2022-11-16T05:09:21.366Z,99353.69
2022-11-16T05:12:26.872Z,99341.84
2022-11-16T05:15:30.205Z,99345.13
2022-11-16T05:18:34.846Z,99340.75
2022-11-16T05:21:40.231Z,99345.22
2022-11-16T05:24:44.517Z,99331.00
2022-11-16T05:27:47.473Z,99329.47
2022-11-16T05:30:50.163Z,99322.78
2022-11-16T05:33:53.238Z,99317.34
2022-11-16T05:36:56.658Z,99323.25
2022-11-16T05:39:59.680Z,99325.63
2022-11-16T05:43:02.694Z,99326.75
2022-11-16T05:46:07.415Z,99329.50
2022-11-16T05:49:12.456Z,99325.81
2022-11-16T05:52:15.840Z,99325.34
2022-11-16T05:55:19.190Z,99320.88
2022-11-16T05:58:22.354Z,99326.06
2022-11-16T06:01:26.035Z,99332.31
2022-11-16T06:04:29.367Z,99324.75
2022-11-16T06:07:32.228Z,99328.75
2022-11-16T06:10:35.504Z,99322.91
2022-11-16T06:13:38.215Z,99320.81
2022-11-16T06:16:41.309Z,99328.09
2022-11-16T06:19:44.478Z,99312.31
2022-11-16T06:22:48.230Z,99299.56
2022-11-16T06:25:57.310Z,99295.38
2022-11-16T06:29:00.821Z,99294.06
2022-11-16T06:32:03.799Z,99295.94
2022-11-16T06:35:08.928Z,99292.47
2022-11-16T06:38:18.583Z,99294.19
2022-11-16T06:41:22.745Z,99298.81
2022-11-16T06:44:25.588Z,99285.41
2022-11-16T06:47:28.906Z,99286.53
2022-11-16T06:50:31.719Z,99291.69
2022-11-16T06:53:34.826Z,99289.72
2022-11-16T06:56:37.862Z,99288.19
2022-11-16T06:59:40.810Z,99287.06
2022-11-16T07:02:43.751Z,99291.78
2022-11-16T07:05:47.964Z,99283.91
2022-11-16T07:08:51.821Z,99282.78
2022-11-16T07:11:55.108Z,99283.91
2022-11-16T07:14:59.077Z,99281.97
2022-11-16T07:18:08.083Z,99291.09
2022-11-16T07:21:13.991Z,99282.81
2022-11-16T07:24:17.075Z,99263.09
2022-11-16T07:27:19.784Z,99257.25
2022-11-16T07:30:23.669Z,99259.63
2022-11-16T07:33:26.597Z,99261.63
2022-11-16T07:36:32.334Z,99254.97
2022-11-16T07:39:35.197Z,99249.00
2022-11-16T07:42:39.914Z,99248.63
2022-11-16T07:45:42.798Z,99256.56
2022-11-16T07:48:46.376Z,99250.69
2022-11-16T07:51:50.488Z,99257.41
2022-11-16T07:54:54.279Z,99250.28
2022-11-16T07:57:58.792Z,99249.50
2022-11-16T08:01:11.617Z,99240.00
2022-11-16T08:04:17.650Z,99241.25
2022-11-16T08:07:20.742Z,99245.63
2022-11-16T08:10:24.826Z,99241.28
2022-11-16T08:13:27.988Z,99234.59
2022-11-16T08:16:33.589Z,99226.28
2022-11-16T08:19:39.610Z,99221.19
2022-11-16T08:22:45.513Z,99216.03
2022-11-16T08:25:48.204Z,99220.78
2022-11-16T08:28:53.928Z,99219.25
2022-11-16T08:31:58.086Z,99222.84
2022-11-16T08:35:01.168Z,99223.63
2022-11-16T08:38:03.846Z,99214.53
2022-11-16T08:41:07.659Z,99211.78
2022-11-16T08:44:10.705Z,99209.00
2022-11-16T08:47:15.025Z,99208.63
2022-11-16T08:50:18.445Z,99206.69
2022-11-16T08:53:21.471Z,99208.66
2022-11-16T08:56:26.434Z,99204.72
2022-11-16T08:59:29.672Z,99203.19
2022-11-16T09:02:32.857Z,99205.16
2022-11-16T09:05:35.777Z,99192.09
2022-11-16T09:08:40.410Z,99199.25
2022-11-16T09:11:43.434Z,99199.63
2022-11-16T09:14:46.014Z,99202.81
2022-11-16T09:17:49.057Z,99203.22
2022-11-16T09:20:52.126Z,99201.63
2022-11-16T09:23:56.176Z,99206.38
2022-11-16T09:27:02.275Z,99210.28
2022-11-16T09:30:05.725Z,99206.72
2022-11-16T09:33:08.393Z,99205.19
2022-11-16T09:36:11.415Z,99196.41
2022-11-16T09:39:29.962Z,99195.69
2022-11-16T09:42:33.224Z,99196.88
2022-11-16T09:45:35.780Z,99186.97
2022-11-16T09:48:40.287Z,99175.47
2022-11-16T09:51:48.224Z,99181.84
2022-11-16T09:54:53.544Z,99174.72
2022-11-16T09:57:59.795Z,99172.31
2022-11-16T10:01:17.160Z,99170.75
2022-11-16T10:04:38.538Z,99161.25
2022-11-16T10:07:48.530Z,99154.09
2022-11-16T10:11:00.527Z,99147.72
2022-11-16T10:14:32.208Z,99147.72
2022-11-16T10:17:47.400Z,99145.72
2022-11-16T10:21:08.581Z,99138.56
2022-11-16T10:24:25.377Z,99135.44
2022-11-16T10:27:42.779Z,99138.19
2022-11-16T10:31:33.582Z,99131.44
2022-11-16T10:35:12.753Z,99124.69
2022-11-16T10:38:20.427Z,99121.56
2022-11-16T10:41:42.799Z,99108.47
2022-11-16T10:45:12.108Z,99104.88
2022-11-16T10:48:30.112Z,99103.72
2022-11-16T10:51:33.182Z,99102.91
2022-11-16T10:54:38.877Z,99102.13
2022-11-16T10:57:57.939Z,99096.56
2022-11-16T11:01:00.761Z,99090.62
2022-11-16T11:04:23.775Z,99085.94
2022-11-16T11:07:40.193Z,99085.91
2022-11-16T11:10:43.240Z,99079.19
2022-11-16T11:13:45.826Z,99080.78
2022-11-16T11:16:53.453Z,99085.47
2022-11-16T11:20:04.577Z,99084.31
2022-11-16T11:23:24.872Z,99073.22
2022-11-16T11:26:34.893Z,99070.87
2022-11-16T11:29:43.209Z,99068.50
2022-11-16T11:32:47.273Z,99073.63
2022-11-16T11:36:28.647Z,99064.13
2022-11-16T11:39:37.145Z,99066.16
2022-11-16T11:42:51.203Z,99059.06
2022-11-16T11:46:56.141Z,99056.31
2022-11-16T11:50:00.353Z,99054.31
2022-11-16T11:53:23.900Z,99058.25
2022-11-16T11:56:30.415Z,99054.69
2022-11-16T11:59:33.033Z,99052.72
2022-11-16T12:02:53.211Z,99040.47
2022-11-16T12:06:22.726Z,99045.59
2022-11-16T12:09:47.219Z,99048.75
2022-11-16T12:12:57.868Z,99043.19
2022-11-16T12:16:08.677Z,99042.84
2022-11-16T12:19:19.971Z,99031.38
2022-11-16T12:22:37.049Z,99029.03
2022-11-16T12:26:00.946Z,99023.47
2022-11-16T12:29:12.751Z,99031.81
2022-11-16T12:32:15.610Z,99033.41
2022-11-16T12:35:33.833Z,99035.00
2022-11-16T12:38:40.888Z,99034.19
2022-11-16T12:42:17.749Z,99032.22
2022-11-16T12:45:41.215Z,99037.00
2022-11-16T12:48:49.893Z,99034.19
2022-11-16T12:51:55.650Z,99036.97
2022-11-16T12:55:26.333Z,99029.09
2022-11-16T12:58:56.337Z,99038.97
2022-11-16T13:02:14.110Z,99035.41
2022-11-16T13:05:37.841Z,99035.78
2022-11-16T13:09:16.157Z,99031.06
2022-11-16T13:12:23.659Z,99027.88
2022-11-16T13:15:34.346Z,99030.25
2022-11-16T13:18:42.873Z,99028.28
2022-11-16T13:21:48.098Z,99030.66
2022-11-16T13:25:13.135Z,99029.47
2022-11-16T13:28:33.700Z,99039.34
2022-11-16T13:31:49.511Z,99036.97
2022-11-16T13:34:53.175Z,99032.63
2022-11-16T13:37:56.097Z,99039.75
2022-11-16T13:41:33.522Z,99044.47
2022-11-16T13:44:36.516Z,99036.97
2022-11-16T13:47:39.359Z,99036.16
2022-11-16T13:50:48.816Z,99041.72
2022-11-16T13:57:29.777Z,99032.22
2022-11-16T14:00:38.758Z,99031.41
2022-11-16T14:03:44.206Z,99037.38
2022-11-16T14:06:46.694Z,99038.94
2022-11-16T14:09:49.983Z,99033.41
2022-11-16T14:12:54.532Z,99025.91
2022-11-16T14:16:38.975Z,99019.56
2022-11-16T14:19:52.386Z,99024.31
2022-11-16T14:23:10.731Z,99030.63
2022-11-16T14:26:22.142Z,99028.25
2022-11-16T14:29:25.464Z,99025.09
2022-11-16T14:32:43.497Z,99029.84
2022-11-16T14:35:52.935Z,99011.28
2022-11-16T14:38:55.606Z,99012.44
2022-11-16T14:42:03.058Z,99009.66
2022-11-16T14:45:12.300Z,99008.47
2022-11-16T14:48:18.459Z,99004.13
2022-11-16T14:51:26.189Z,99005.31
2022-11-16T14:54:47.257Z,99008.50
2022-11-16T14:57:49.886Z,99009.28
2022-11-16T15:01:00.527Z,98991.09
2022-11-16T15:04:12.475Z,99000.59
2022-11-16T15:07:16.795Z,99004.13
2022-11-16T15:10:26.640Z,98998.22
2022-11-16T15:13:29.773Z,98991.06
2022-11-16T15:16:32.423Z,98991.88
2022-11-16T15:19:35.698Z,98994.25
2022-11-16T15:22:41.660Z,98992.25
2022-11-16T15:25:56.251Z,98995.44
2022-11-16T15:28:59.906Z,98988.75
2022-11-16T15:32:03.260Z,98990.31
2022-11-16T15:35:06.416Z,98988.34
2022-11-16T15:38:21.794Z,98993.09
2022-11-16T15:41:28.161Z,98987.13
2022-11-16T15:44:32.128Z,98984.78
2022-11-16T15:47:36.855Z,98984.38
2022-11-16T15:50:39.833Z,98979.22
2022-11-16T15:53:47.824Z,98982.00
2022-11-16T15:56:52.836Z,98990.31
2022-11-16T15:59:59.784Z,98980.81
2022-11-16T16:03:07.175Z,98982.78
2022-11-16T16:06:14.587Z,98991.88
2022-11-16T16:09:32.556Z,98989.91
2022-11-16T16:12:49.457Z,98997.03
2022-11-16T16:16:26.597Z,98996.25
2022-11-16T16:19:40.661Z,98992.28
2022-11-16T16:22:43.384Z,98994.28
2022-11-16T16:25:50.558Z,98991.91
2022-11-16T16:28:53.601Z,98993.88
2022-11-16T16:31:56.696Z,98984.78
2022-11-16T16:35:01.917Z,98985.19
2022-11-16T16:38:14.225Z,98984.38
2022-11-16T16:41:24.095Z,98990.31
2022-11-16T16:44:27.311Z,98993.88
2022-11-16T16:47:31.724Z,98988.72
2022-11-16T16:50:34.968Z,98985.59
2022-11-16T16:53:37.568Z,98983.19
2022-11-16T16:56:41.242Z,98984.78
2022-11-16T16:59:48.657Z,98988.75
2022-11-16T17:02:51.869Z,98985.56
2022-11-16T17:06:02.052Z,98979.66
2022-11-16T17:09:05.071Z,98978.84
2022-11-16T17:12:07.818Z,98978.47
2022-11-16T17:15:15.067Z,98983.59
2022-11-16T17:18:20.943Z,98980.44
2022-11-16T17:21:24.320Z,98976.47
2022-11-16T17:24:27.489Z,98963.44
2022-11-16T17:27:32.291Z,98968.97
2022-11-16T17:30:35.034Z,98970.16
2022-11-16T17:33:40.182Z,98968.19
2022-11-16T17:36:44.174Z,98978.47
2022-11-16T17:39:47.151Z,98964.22
2022-11-16T17:42:49.887Z,98958.69
2022-11-16T17:45:53.230Z,98966.97
2022-11-16T17:48:56.837Z,98965.81
2022-11-16T17:52:00.369Z,98963.03
2022-11-16T17:55:03.904Z,98959.88
2022-11-16T17:58:08.003Z,98958.31
2022-11-16T18:01:12.460Z,98960.28
2022-11-16T18:04:15.862Z,98957.91
2022-11-16T18:07:22.325Z,98956.31
2022-11-16T18:10:25.896Z,98963.81
2022-11-16T18:13:29.070Z,98951.59
2022-11-16T18:16:33.801Z,98954.34
2022-11-16T18:19:36.446Z,98959.09
2022-11-16T18:22:39.360Z,98946.81
2022-11-16T18:25:42.434Z,98955.53
2022-11-16T18:28:46.597Z,98956.31
2022-11-16T18:31:49.641Z,98958.69
2022-11-16T18:34:54.143Z,98954.34
2022-11-16T18:38:00.047Z,98960.25
2022-11-16T18:41:12.480Z,98958.28
2022-11-16T18:44:15.635Z,98953.97
2022-11-16T18:47:22.335Z,98962.25
2022-11-16T18:50:28.127Z,98963.06
2022-11-16T18:53:33.111Z,98957.87
2022-11-16T18:56:36.849Z,98951.59
2022-11-16T18:59:40.344Z,98953.56
2022-11-16T19:02:43.490Z,98944.88
2022-11-16T19:05:50.469Z,98939.34
2022-11-16T19:09:01.669Z,98942.09
2022-11-16T19:12:05.145Z,98949.63
2022-11-16T19:15:09.218Z,98946.84
2022-11-16T19:18:21.163Z,98957.91
2022-11-16T19:21:25.747Z,98958.31
2022-11-16T19:24:29.206Z,98951.56
2022-11-16T19:27:32.718Z,98955.13
2022-11-16T19:30:36.024Z,98946.81
2022-11-16T19:33:39.322Z,98944.09
2022-11-16T19:36:42.711Z,98943.28
2022-11-16T19:39:46.753Z,98947.22
2022-11-16T19:42:50.040Z,98940.50
2022-11-16T19:45:53.147Z,98940.53
2022-11-16T19:48:57.479Z,98939.72
2022-11-16T19:52:00.500Z,98940.09
2022-11-16T19:55:04.080Z,98949.97
2022-11-16T19:58:06.845Z,98953.12
2022-11-16T20:01:20.365Z,98942.88
2022-11-16T20:04:25.601Z,98953.12
2022-11-16T20:07:28.247Z,98946.44
2022-11-16T20:10:31.400Z,98939.72
2022-11-16T20:13:34.992Z,98948.41
2022-11-16T20:16:41.201Z,98953.97
2022-11-16T20:19:43.977Z,98954.72
2022-11-16T20:22:51.380Z,98958.28
2022-11-16T20:25:55.900Z,98957.50
2022-11-16T20:29:01.117Z,98953.53
2022-11-16T20:32:04.201Z,98956.69
2022-11-16T20:35:07.869Z,98953.16
2022-11-16T20:38:10.607Z,98953.56
2022-11-16T20:41:16.638Z,98974.09
2022-11-16T20:44:22.604Z,98959.41
2022-11-16T20:47:26.042Z,98950.78
2022-11-16T20:50:29.099Z,98943.25
2022-11-16T20:53:32.649Z,98940.91
2022-11-16T20:56:36.166Z,98945.25
2022-11-16T20:59:39.532Z,98946.84
2022-11-16T21:02:43.369Z,98938.12
2022-11-16T21:05:51.105Z,98937.75
2022-11-16T21:08:54.354Z,98940.91
2022-11-16T21:12:15.839Z,98941.28
2022-11-16T21:15:18.380Z,98923.91
2022-11-16T21:18:23.355Z,98916.41
2022-11-16T21:21:28.634Z,98911.69
2022-11-16T21:24:32.427Z,98920.75
2022-11-16T21:27:36.626Z,98919.97
2022-11-16T21:30:39.613Z,98919.16
2022-11-16T21:33:44.176Z,98911.28
2022-11-16T21:36:47.721Z,98907.72
2022-11-16T21:39:50.242Z,98901.78
2022-11-16T21:42:53.123Z,98897.41
2022-11-16T21:46:03.168Z,98881.22
2022-11-16T21:49:07.763Z,98879.66
2022-11-16T21:52:10.237Z,98874.94
2022-11-16T21:55:13.124Z,98875.72
2022-11-16T21:58:15.718Z,98865.44
2022-11-16T22:01:22.038Z,98866.63
2022-11-16T22:04:43.781Z,98854.38
2022-11-16T22:07:46.399Z,98863.47
2022-11-16T22:10:53.378Z,98878.47
2022-11-16T22:13:55.973Z,98879.63
2022-11-16T22:16:58.858Z,98886.75
2022-11-16T22:20:01.394Z,98881.25
2022-11-16T22:23:04.320Z,98895.06
2022-11-16T22:26:11.598Z,98904.53
2022-11-16T22:29:14.512Z,98891.53
2022-11-16T22:32:17.051Z,98894.28
2022-11-16T22:35:19.960Z,98894.66
2022-11-16T22:38:22.943Z,98896.25
2022-11-16T22:41:28.104Z,98897.06
2022-11-16T22:44:30.670Z,98899.78
2022-11-16T22:47:35.848Z,98897.03
2022-11-16T22:50:38.450Z,98912.03
2022-11-16T22:53:41.692Z,98900.19
2022-11-16T22:56:45.382Z,98908.09
2022-11-16T22:59:48.267Z,98911.63
2022-11-16T23:02:52.233Z,98898.97
2022-11-16T23:05:55.224Z,98892.25
2022-11-16T23:08:58.099Z,98893.03
2022-11-16T23:12:19.985Z,98891.44
2022-11-16T23:15:42.324Z,98902.06
2022-11-16T23:18:45.347Z,98893.78
2022-11-16T23:22:06.871Z,98900.88
2022-11-16T23:25:30.587Z,98903.63
2022-11-16T23:28:33.241Z,98906.38
2022-11-16T23:31:37.401Z,98903.63
2022-11-16T23:34:40.000Z,98901.66
2022-11-16T23:37:53.371Z,98912.28
2022-11-16T23:40:55.983Z,98916.22
2022-11-16T23:43:59.950Z,98917.81
2022-11-16T23:47:02.753Z,98919.37
2022-11-16T23:50:07.182Z,98927.66
2022-11-16T23:53:10.477Z,98929.19
2022-11-16T23:56:13.479Z,98928.00
2022-11-16T23:59:16.054Z,98924.03
